Time;durP1;ratioP1;P1;durP2;ratioP2;P2;SDS_P1;SDS_P2;PMS_P1;PMS_P2;Temp;Humidity;BMP_temperature;BMP_pressure;BME280_temperature;BME280_humidity;BME280_pressure;Samples;Min_cycle;Max_cycle;Signal;HPM_P1;HPM_P2
2021/09/28 00:00:29;;;;;;;0.60;0.57;;;16.10;99.90;;;;;;4845874;29;20490;-89
2021/09/28 00:02:55;;;;;;;4.03;0.70;;;16.10;99.90;;;;;;4845219;29;20452;-90
2021/09/28 00:05:22;;;;;;;1.13;0.70;;;16.00;99.90;;;;;;4842660;29;20726;-90
2021/09/28 00:07:47;;;;;;;1.40;1.30;;;16.00;99.90;;;;;;4833558;29;20462;-90
2021/09/28 00:10:13;;;;;;;1.23;0.80;;;15.90;99.90;;;;;;4845483;29;20455;-90
2021/09/28 00:12:39;;;;;;;1.00;0.97;;;15.80;99.90;;;;;;4832696;29;20191;-89
2021/09/28 00:15:08;;;;;;;1.37;1.27;;;15.80;99.90;;;;;;4848068;29;20485;-90
2021/09/28 00:17:33;;;;;;;1.80;1.70;;;15.60;99.90;;;;;;4828815;29;21044;-89
2021/09/28 00:19:59;;;;;;;1.27;1.20;;;15.50;99.90;;;;;;4845418;29;20510;-90
2021/09/28 00:22:25;;;;;;;4.30;1.30;;;15.40;99.90;;;;;;4847088;29;20236;-89
2021/09/28 00:24:51;;;;;;;6.97;1.63;;;15.30;99.90;;;;;;4848306;29;20195;-90
2021/09/28 00:27:16;;;;;;;1.23;1.23;;;15.20;99.90;;;;;;4831266;29;20446;-90
2021/09/28 00:29:42;;;;;;;0.90;0.90;;;15.20;99.90;;;;;;4842541;29;20194;-90
2021/09/28 00:32:08;;;;;;;0.83;0.83;;;15.10;99.90;;;;;;4849845;29;20193;-89
2021/09/28 00:34:34;;;;;;;1.07;0.97;;;15.00;99.90;;;;;;4846746;29;20303;-90
2021/09/28 00:37:00;;;;;;;0.83;0.60;;;15.00;99.90;;;;;;4833864;29;20524;-89
2021/09/28 00:39:26;;;;;;;0.67;0.67;;;14.90;99.90;;;;;;4832099;29;20515;-89
2021/09/28 00:41:52;;;;;;;1.40;0.90;;;14.80;99.90;;;;;;4843751;29;20202;-90
2021/09/28 00:44:36;;;;;;;0.50;0.50;;;14.80;99.90;;;;;;4846258;29;20447;-90
2021/09/28 00:47:02;;;;;;;1.47;0.80;;;14.70;99.90;;;;;;4827349;29;20254;-89
2021/09/28 00:49:28;;;;;;;0.70;0.70;;;14.60;99.90;;;;;;4830586;29;20474;-90
2021/09/28 00:51:54;;;;;;;0.90;0.70;;;14.60;99.90;;;;;;4832498;29;20447;-89
2021/09/28 00:54:20;;;;;;;0.70;0.70;;;14.50;99.90;;;;;;4847078;29;20290;-89
2021/09/28 00:56:46;;;;;;;0.73;0.73;;;14.60;99.90;;;;;;4834154;29;20466;-89
2021/09/28 00:59:12;;;;;;;1.30;1.20;;;14.60;99.90;;;;;;4831970;29;20202;-89
2021/09/28 01:01:38;;;;;;;1.80;1.30;;;14.60;99.90;;;;;;4844186;29;20882;-90
2021/09/28 01:04:04;;;;;;;2.13;1.30;;;14.60;99.90;;;;;;4847264;29;20851;-89
2021/09/28 01:06:30;;;;;;;1.77;1.30;;;14.50;99.90;;;;;;4830896;29;20503;-90
2021/09/28 01:08:56;;;;;;;1.20;0.80;;;14.40;99.90;;;;;;4847249;29;20873;-90
2021/09/28 01:11:22;;;;;;;0.80;0.80;;;14.30;99.90;;;;;;4851572;29;20712;-90
2021/09/28 01:13:48;;;;;;;1.00;1.00;;;14.30;99.90;;;;;;4831479;29;20194;-90
2021/09/28 01:16:14;;;;;;;1.07;1.07;;;14.40;99.90;;;;;;4830361;29;20466;-90
2021/09/28 01:18:42;;;;;;;1.30;1.20;;;14.30;99.90;;;;;;4844585;29;20210;-89
2021/09/28 01:21:11;;;;;;;2.30;1.57;;;14.30;99.90;;;;;;4834500;29;20194;-89
2021/09/28 01:23:44;;;;;;;1.00;0.93;;;14.40;99.90;;;;;;4843585;29;20458;-89
2021/09/28 01:26:10;;;;;;;1.40;1.20;;;14.40;99.90;;;;;;4845901;29;20466;-90
2021/09/28 01:28:37;;;;;;;1.67;1.23;;;14.40;99.90;;;;;;4848403;29;20446;-90
2021/09/28 01:31:03;;;;;;;0.90;0.90;;;14.40;99.90;;;;;;4830876;29;20466;-90
2021/09/28 01:33:28;;;;;;;1.00;1.00;;;14.40;99.90;;;;;;4846122;29;20451;-90
2021/09/28 01:35:54;;;;;;;1.70;1.60;;;14.10;99.90;;;;;;4833441;29;20230;-90
2021/09/28 01:38:20;;;;;;;4.57;1.67;;;13.90;99.90;;;;;;4828182;29;20247;-90
2021/09/28 01:40:46;;;;;;;3.97;1.50;;;13.70;99.90;;;;;;4829668;29;20757;-90
2021/09/28 01:43:14;;;;;;;1.57;1.47;;;13.50;99.90;;;;;;4847539;29;20545;-90
2021/09/28 01:45:41;;;;;;;2.10;1.60;;;13.40;99.90;;;;;;4827765;29;20264;-90
2021/09/28 01:48:07;;;;;;;1.40;1.30;;;13.30;99.90;;;;;;4829230;29;20462;-90
2021/09/28 01:50:34;;;;;;;1.70;1.20;;;13.10;99.90;;;;;;4828790;29;20470;-90
2021/09/28 01:53:00;;;;;;;1.63;1.53;;;13.20;99.90;;;;;;4839967;29;20322;-91
2021/09/28 01:55:26;;;;;;;1.67;1.40;;;13.10;99.90;;;;;;4846504;29;20986;-90
2021/09/28 01:57:56;;;;;;;3.13;2.13;;;13.20;99.90;;;;;;4836688;29;20206;-90
2021/09/28 02:00:22;;;;;;;2.87;1.20;;;13.20;99.90;;;;;;4850696;29;20476;-90
2021/09/28 02:02:48;;;;;;;3.30;1.40;;;13.30;99.90;;;;;;4838550;29;20823;-90
2021/09/28 02:05:14;;;;;;;1.80;1.10;;;13.30;99.90;;;;;;4831946;29;20459;-90
2021/09/28 02:07:39;;;;;;;1.63;1.13;;;13.30;99.90;;;;;;4837341;29;20634;-89
2021/09/28 02:10:06;;;;;;;5.07;1.40;;;13.30;99.90;;;;;;4837860;29;20199;-90
2021/09/28 02:12:33;;;;;;;1.43;1.17;;;13.20;99.90;;;;;;4833783;29;20206;-90
2021/09/28 02:14:58;;;;;;;2.50;1.27;;;13.20;99.90;;;;;;4847881;29;20853;-90
2021/09/28 02:17:24;;;;;;;1.93;1.10;;;13.20;99.90;;;;;;4838144;29;20457;-90
2021/09/28 02:19:50;;;;;;;2.30;1.40;;;13.10;99.90;;;;;;4850434;29;20284;-90
2021/09/28 02:22:16;;;;;;;1.60;1.40;;;13.20;99.90;;;;;;4847420;29;20221;-89
2021/09/28 02:24:41;;;;;;;2.93;1.27;;;13.20;99.90;;;;;;4831954;29;20198;-89
2021/09/28 02:27:07;;;;;;;1.90;1.20;;;13.20;99.90;;;;;;4833017;29;20448;-89
2021/09/28 02:29:33;;;;;;;6.20;1.20;;;13.20;99.90;;;;;;4847697;29;20186;-90
2021/09/28 02:31:59;;;;;;;1.47;1.07;;;13.20;99.90;;;;;;4850640;29;20217;-90
2021/09/28 02:34:25;;;;;;;2.83;1.57;;;13.20;99.90;;;;;;4838622;29;20467;-89
2021/09/28 02:36:51;;;;;;;3.40;1.23;;;13.20;99.90;;;;;;4850132;29;20731;-89
2021/09/28 02:39:18;;;;;;;5.57;1.60;;;13.20;99.90;;;;;;4854621;29;20201;-90
2021/09/28 02:41:44;;;;;;;2.47;1.07;;;13.20;99.90;;;;;;4840844;29;20198;-89
2021/09/28 02:44:09;;;;;;;3.40;1.50;;;13.20;99.90;;;;;;4837022;29;20471;-90
2021/09/28 02:46:35;;;;;;;4.20;1.37;;;13.20;99.90;;;;;;4852579;29;20534;-89
2021/09/28 02:49:02;;;;;;;5.53;1.50;;;13.20;99.90;;;;;;4852277;29;20198;-90
2021/09/28 02:51:27;;;;;;;1.90;1.63;;;13.10;99.90;;;;;;4838969;29;20289;-90
2021/09/28 02:53:54;;;;;;;1.70;1.07;;;13.20;99.90;;;;;;4850272;29;20882;-90
2021/09/28 02:56:20;;;;;;;5.03;1.30;;;13.10;99.90;;;;;;4834507;29;20195;-90
2021/09/28 02:58:45;;;;;;;1.80;1.20;;;13.10;99.90;;;;;;4835494;29;20455;-90
2021/09/28 03:01:11;;;;;;;2.60;1.43;;;13.10;99.90;;;;;;4832621;29;20199;-90
2021/09/28 03:03:37;;;;;;;5.73;1.73;;;13.20;99.90;;;;;;4850378;29;20223;-90
2021/09/28 03:06:02;;;;;;;3.83;1.33;;;13.10;99.90;;;;;;4837043;29;20191;-90
2021/09/28 03:08:28;;;;;;;3.70;1.67;;;13.00;99.90;;;;;;4849793;29;20197;-90
2021/09/28 03:10:54;;;;;;;3.23;1.40;;;13.00;99.90;;;;;;4850415;29;20193;-90
2021/09/28 03:13:19;;;;;;;2.63;1.47;;;13.00;99.90;;;;;;4832356;29;20704;-90
2021/09/28 03:15:45;;;;;;;3.10;1.53;;;13.00;99.90;;;;;;4848045;29;20769;-89
2021/09/28 03:18:11;;;;;;;4.80;1.40;;;13.00;99.90;;;;;;4849014;29;20191;-90
2021/09/28 03:20:36;;;;;;;1.60;1.50;;;12.90;99.90;;;;;;4849396;29;20269;-90
2021/09/28 03:23:02;;;;;;;3.83;1.80;;;13.00;99.90;;;;;;4831518;29;20191;-90
2021/09/28 03:25:27;;;;;;;3.93;2.00;;;13.00;99.90;;;;;;4847968;29;20191;-90
2021/09/28 03:27:53;;;;;;;3.03;1.70;;;13.10;99.90;;;;;;4852008;29;20284;-90
2021/09/28 03:30:19;;;;;;;6.17;2.23;;;13.00;99.90;;;;;;4848918;29;20226;-90
2021/09/28 03:32:45;;;;;;;4.30;1.80;;;13.10;99.90;;;;;;4848056;29;20266;-90
2021/09/28 03:35:11;;;;;;;3.73;2.27;;;13.10;99.90;;;;;;4832569;29;20274;-90
2021/09/28 03:37:38;;;;;;;4.50;2.40;;;13.10;99.90;;;;;;4846369;29;20273;-89
2021/09/28 03:40:06;;;;;;;3.33;2.83;;;13.20;99.90;;;;;;4832095;29;20464;-90
2021/09/28 03:42:32;;;;;;;4.23;2.07;;;13.30;99.90;;;;;;4848096;29;20440;-90
2021/09/28 03:44:57;;;;;;;3.57;1.87;;;13.40;99.90;;;;;;4846254;29;20457;-90
2021/09/28 03:47:23;;;;;;;1.70;1.50;;;13.30;99.90;;;;;;4835740;29;20677;-90
2021/09/28 03:49:49;;;;;;;1.70;1.53;;;13.20;99.90;;;;;;4849571;29;20281;-90
2021/09/28 03:52:14;;;;;;;4.10;1.60;;;13.20;99.90;;;;;;4850459;29;20194;-90
2021/09/28 03:54:40;;;;;;;2.27;1.73;;;13.10;99.90;;;;;;4833155;29;20218;-89
2021/09/28 03:57:06;;;;;;;2.30;1.57;;;12.90;99.90;;;;;;4834021;29;20205;-90
2021/09/28 03:59:31;;;;;;;3.37;1.60;;;12.80;99.90;;;;;;4853267;29;20743;-90
2021/09/28 04:01:57;;;;;;;2.03;1.83;;;12.70;99.90;;;;;;4837406;29;20245;-90
2021/09/28 04:04:22;;;;;;;4.73;1.93;;;12.60;99.90;;;;;;4847573;29;20187;-90
2021/09/28 04:06:48;;;;;;;3.10;2.10;;;12.60;99.90;;;;;;4847395;29;20844;-90
2021/09/28 04:09:16;;;;;;;2.00;1.80;;;12.60;99.90;;;;;;4831927;29;20190;-91
2021/09/28 04:11:41;;;;;;;2.47;2.27;;;12.50;99.90;;;;;;4838944;29;20194;-90
2021/09/28 04:14:09;;;;;;;4.33;3.30;;;12.50;99.90;;;;;;4833797;29;20447;-91
2021/09/28 04:16:36;;;;;;;3.23;2.50;;;12.40;99.90;;;;;;4832576;29;20469;-90
2021/09/28 04:19:02;;;;;;;4.23;2.53;;;12.20;99.90;;;;;;4834753;29;20464;-90
2021/09/28 04:21:32;;;;;;;5.50;2.90;;;12.20;99.90;;;;;;4850472;29;20612;-90
2021/09/28 04:23:58;;;;;;;3.37;2.70;;;12.20;99.90;;;;;;4831795;29;20978;-89
2021/09/28 04:26:24;;;;;;;4.03;2.47;;;12.30;99.90;;;;;;4850034;29;20448;-90
2021/09/28 04:28:50;;;;;;;2.40;2.20;;;12.30;99.90;;;;;;4835917;29;20442;-89
2021/09/28 04:31:16;;;;;;;3.67;3.17;;;12.30;99.90;;;;;;4834118;29;20589;-90
2021/09/28 04:33:45;;;;;;;3.10;2.60;;;12.20;99.90;;;;;;4831352;29;21045;-90
2021/09/28 04:36:11;;;;;;;2.73;2.53;;;12.10;99.90;;;;;;4848642;29;20499;-90
2021/09/28 04:38:37;;;;;;;3.30;2.70;;;12.10;99.90;;;;;;4830239;29;20769;-90
2021/09/28 04:41:03;;;;;;;3.00;2.03;;;12.00;99.90;;;;;;4847826;29;20789;-90
2021/09/28 04:43:29;;;;;;;3.37;2.20;;;12.00;99.90;;;;;;4848030;29;20454;-90
2021/09/28 04:45:55;;;;;;;6.30;2.30;;;12.00;99.90;;;;;;4848680;29;20420;-90
2021/09/28 04:48:21;;;;;;;2.70;2.50;;;11.90;99.90;;;;;;4846181;29;20443;-90
2021/09/28 04:50:47;;;;;;;2.57;2.37;;;11.90;99.90;;;;;;4846995;29;20474;-90
2021/09/28 04:53:14;;;;;;;3.83;2.20;;;11.90;99.90;;;;;;4848582;29;20202;-90
2021/09/28 04:55:39;;;;;;;2.80;2.20;;;11.90;99.90;;;;;;4833194;29;20222;-90
2021/09/28 04:58:06;;;;;;;2.90;2.60;;;11.80;99.90;;;;;;4832273;29;20436;-90
2021/09/28 05:00:32;;;;;;;4.63;2.87;;;11.80;99.90;;;;;;4831579;29;20599;-90
2021/09/28 05:02:58;;;;;;;4.80;2.70;;;11.70;99.90;;;;;;4830159;29;20462;-90
2021/09/28 05:05:23;;;;;;;5.50;2.50;;;11.60;99.90;;;;;;4848872;29;20190;-90
2021/09/28 05:07:49;;;;;;;4.07;2.77;;;11.50;99.90;;;;;;4848852;29;20204;-89
2021/09/28 05:10:15;;;;;;;3.80;3.07;;;11.40;99.90;;;;;;4833625;29;20189;-89
2021/09/28 05:12:40;;;;;;;5.27;2.90;;;11.30;99.90;;;;;;4841982;29;20186;-90
2021/09/28 05:15:07;;;;;;;5.27;3.37;;;11.30;99.90;;;;;;4830741;29;20233;-90
2021/09/28 05:17:35;;;;;;;3.73;3.40;;;11.30;99.90;;;;;;4844640;29;20199;-90
2021/09/28 05:20:01;;;;;;;3.63;3.20;;;11.30;99.90;;;;;;4830738;29;21171;-89
2021/09/28 05:22:27;;;;;;;3.13;2.70;;;11.20;99.90;;;;;;4833991;29;20463;-90
2021/09/28 05:24:53;;;;;;;3.93;3.60;;;11.20;99.90;;;;;;4831134;29;20520;-90
2021/09/28 05:27:18;;;;;;;3.30;3.00;;;11.20;99.90;;;;;;4833941;29;20266;-90
2021/09/28 05:29:44;;;;;;;5.00;3.17;;;11.20;99.90;;;;;;4844235;29;20209;-90
2021/09/28 05:32:10;;;;;;;3.80;2.97;;;11.10;99.90;;;;;;4834104;29;20238;-91
2021/09/28 05:34:36;;;;;;;3.10;2.80;;;11.10;99.90;;;;;;4833032;29;20249;-91
2021/09/28 05:37:02;;;;;;;3.40;3.10;;;11.10;99.90;;;;;;4832468;29;20215;-90
2021/09/28 05:39:27;;;;;;;3.67;3.37;;;11.20;99.90;;;;;;4845086;29;20478;-90
2021/09/28 05:41:53;;;;;;;4.67;2.70;;;11.20;99.90;;;;;;4832360;29;20871;-91
2021/09/28 05:44:19;;;;;;;2.57;2.37;;;11.20;99.90;;;;;;4832900;29;20206;-90
2021/09/28 05:46:44;;;;;;;2.63;2.27;;;11.20;99.90;;;;;;4842316;29;21044;-90
2021/09/28 05:49:10;;;;;;;3.10;2.50;;;11.10;99.90;;;;;;4849438;29;20199;-90
2021/09/28 05:51:37;;;;;;;3.20;2.40;;;11.20;99.90;;;;;;4844703;29;20183;-90
2021/09/28 05:54:05;;;;;;;4.17;2.87;;;11.20;99.90;;;;;;4836100;29;20198;-91
2021/09/28 05:56:31;;;;;;;2.90;2.53;;;11.20;99.90;;;;;;4831965;29;20872;-91
2021/09/28 05:58:57;;;;;;;4.27;2.50;;;11.20;99.90;;;;;;4833864;29;20439;-90
2021/09/28 06:01:22;;;;;;;5.03;3.47;;;11.40;99.90;;;;;;4832659;29;20223;-90
2021/09/28 06:03:48;;;;;;;6.90;3.90;;;11.40;99.90;;;;;;4847025;29;20199;-90
2021/09/28 06:06:14;;;;;;;2.93;2.63;;;11.40;99.90;;;;;;4833264;29;20194;-91
2021/09/28 06:08:40;;;;;;;2.53;2.30;;;11.40;99.90;;;;;;4831987;29;20672;-90
2021/09/28 06:11:06;;;;;;;3.30;2.63;;;11.40;99.90;;;;;;4832875;29;20218;-91
2021/09/28 06:13:31;;;;;;;3.07;2.63;;;11.40;99.90;;;;;;4844526;29;20301;-91
2021/09/28 06:15:57;;;;;;;2.70;2.50;;;11.50;99.90;;;;;;4831501;29;20525;-91
2021/09/28 06:18:23;;;;;;;3.67;3.00;;;11.70;99.90;;;;;;4833780;29;20290;-91
2021/09/28 06:20:49;;;;;;;4.00;3.40;;;11.80;99.90;;;;;;4825250;29;20191;-91
2021/09/28 06:23:15;;;;;;;2.57;2.40;;;12.10;99.90;;;;;;4847235;29;20456;-91
2021/09/28 06:25:40;;;;;;;3.50;2.13;;;12.20;99.90;;;;;;4836168;29;20552;-91
2021/09/28 06:28:06;;;;;;;5.00;2.40;;;12.30;99.90;;;;;;4831910;29;20661;-90
2021/09/28 06:30:32;;;;;;;4.23;2.87;;;12.40;99.90;;;;;;4831525;29;20190;-91
2021/09/28 06:32:57;;;;;;;4.43;2.50;;;12.40;99.90;;;;;;4832855;29;20253;-90
2021/09/28 06:35:24;;;;;;;2.60;2.40;;;12.50;99.90;;;;;;4847729;29;20274;-90
2021/09/28 06:37:50;;;;;;;4.00;2.67;;;12.60;99.90;;;;;;4833310;29;20191;-90
2021/09/28 06:40:16;;;;;;;5.90;3.10;;;12.70;99.90;;;;;;4846485;29;20463;-90
2021/09/28 06:42:41;;;;;;;4.03;2.70;;;12.70;99.90;;;;;;4848115;29;20202;-90
2021/09/28 06:45:07;;;;;;;2.60;2.50;;;12.80;99.90;;;;;;4836422;29;20198;-91
2021/09/28 06:47:33;;;;;;;3.40;3.10;;;13.00;99.90;;;;;;4835892;29;20210;-90
2021/09/28 06:49:59;;;;;;;2.93;2.67;;;13.20;99.90;;;;;;4833263;29;20199;-91
2021/09/28 06:52:25;;;;;;;6.83;2.70;;;13.30;99.90;;;;;;4835231;29;20493;-90
2021/09/28 06:54:50;;;;;;;6.37;3.37;;;13.30;99.90;;;;;;4837698;29;20712;-89
2021/09/28 06:57:17;;;;;;;3.73;2.60;;;13.30;99.90;;;;;;4833364;29;20210;-90
2021/09/28 06:59:42;;;;;;;5.70;3.20;;;13.50;99.90;;;;;;4832892;29;20190;-90
2021/09/28 07:02:08;;;;;;;3.67;3.20;;;13.80;99.90;;;;;;4833686;29;20815;-90
2021/09/28 07:04:34;;;;;;;3.70;3.33;;;13.90;99.90;;;;;;4851008;29;20182;-90
2021/09/28 07:07:01;;;;;;;6.03;3.47;;;14.10;99.90;;;;;;4850598;29;20737;-89
2021/09/28 07:09:27;;;;;;;6.40;5.20;;;14.20;99.90;;;;;;4838974;29;20190;-91
2021/09/28 07:11:53;;;;;;;6.03;4.30;;;14.20;99.90;;;;;;4834648;29;20447;-90
2021/09/28 07:14:19;;;;;;;9.63;5.60;;;14.10;99.90;;;;;;4848899;29;20527;-90
2021/09/28 07:16:45;;;;;;;7.37;3.90;;;14.20;99.90;;;;;;4830443;29;20705;-90
2021/09/28 07:19:10;;;;;;;9.00;4.53;;;14.40;99.90;;;;;;4832701;29;20198;-90
2021/09/28 07:21:36;;;;;;;6.20;3.87;;;14.50;99.90;;;;;;4850516;29;20652;-90
2021/09/28 07:24:02;;;;;;;4.20;3.70;;;14.40;99.90;;;;;;4849644;29;20195;-90
2021/09/28 07:26:27;;;;;;;10.37;4.00;;;14.60;99.90;;;;;;4851028;29;20571;-90
2021/09/28 07:28:53;;;;;;;5.37;4.37;;;14.60;99.90;;;;;;4837309;29;20222;-90
2021/09/28 07:31:19;;;;;;;7.90;5.33;;;14.40;99.90;;;;;;4836307;29;20663;-90
2021/09/28 07:33:44;;;;;;;8.87;5.63;;;14.30;99.90;;;;;;4830959;29;20194;-90
2021/09/28 07:36:10;;;;;;;6.13;5.37;;;14.30;99.90;;;;;;4833024;29;20218;-89
2021/09/28 07:38:36;;;;;;;6.97;6.27;;;14.30;99.90;;;;;;4845346;29;20244;-90
2021/09/28 07:41:02;;;;;;;12.07;7.00;;;14.40;99.90;;;;;;4836539;29;20215;-90
2021/09/28 07:43:28;;;;;;;9.50;7.60;;;14.50;99.90;;;;;;4836429;29;20194;-90
2021/09/28 07:45:54;;;;;;;9.67;7.20;;;14.40;99.90;;;;;;4848175;29;20507;-90
2021/09/28 07:48:20;;;;;;;10.60;8.10;;;14.20;99.90;;;;;;4831868;29;20627;-90
2021/09/28 07:50:46;;;;;;;8.23;7.40;;;14.40;99.90;;;;;;4831199;29;20542;-89
2021/09/28 07:53:12;;;;;;;9.90;8.10;;;14.40;99.90;;;;;;4834223;29;20187;-90
2021/09/28 07:55:38;;;;;;;10.07;7.63;;;14.40;99.90;;;;;;4846779;29;20993;-91
2021/09/28 07:58:04;;;;;;;7.77;7.07;;;14.50;99.90;;;;;;4837346;29;20198;-90
2021/09/28 08:00:30;;;;;;;11.77;8.57;;;14.40;99.90;;;;;;4834393;29;20853;-90
2021/09/28 08:02:55;;;;;;;7.90;6.90;;;14.60;99.90;;;;;;4834432;29;20530;-89
2021/09/28 08:05:21;;;;;;;8.30;6.73;;;14.60;99.90;;;;;;4832580;29;20462;-90
2021/09/28 08:07:47;;;;;;;7.23;5.93;;;14.60;99.90;;;;;;4852094;29;20213;-90
2021/09/28 08:10:15;;;;;;;8.97;6.90;;;14.80;99.90;;;;;;4852026;29;20222;-89
2021/09/28 08:12:42;;;;;;;11.00;6.70;;;15.00;99.90;;;;;;4833254;29;20543;-90
2021/09/28 08:15:08;;;;;;;13.73;7.27;;;15.10;99.90;;;;;;4846676;29;20483;-91
2021/09/28 08:17:34;;;;;;;8.10;6.30;;;15.10;99.90;;;;;;4832267;29;20447;-90
2021/09/28 08:20:00;;;;;;;7.20;6.50;;;15.10;99.90;;;;;;4832396;29;20792;-90
2021/09/28 08:22:26;;;;;;;8.03;5.90;;;15.00;99.90;;;;;;4831671;29;20227;-89
2021/09/28 08:24:55;;;;;;;6.23;5.63;;;14.70;99.90;;;;;;4829501;29;20506;-90
2021/09/28 08:30:08;;;;;;;4.33;3.93;;;14.50;99.90;;;;;;4841143;29;20439;-88
2021/09/28 08:32:34;;;;;;;10.20;5.30;;;14.70;99.90;;;;;;4845780;29;20803;-90
2021/09/28 08:35:00;;;;;;;5.97;5.13;;;14.70;99.90;;;;;;4835414;29;20497;-90
2021/09/28 08:37:26;;;;;;;5.90;5.20;;;14.80;99.90;;;;;;4848742;29;20448;-91
2021/09/28 08:39:56;;;;;;;6.30;5.80;;;14.80;99.90;;;;;;4833133;29;20250;-89
2021/09/28 08:42:22;;;;;;;7.60;5.93;;;14.70;99.90;;;;;;4833703;29;20829;-90
2021/09/28 08:44:48;;;;;;;6.80;6.20;;;14.50;99.90;;;;;;4834191;29;20999;-90
2021/09/28 08:47:14;;;;;;;9.87;6.37;;;14.40;99.90;;;;;;4835068;29;20454;-90
2021/09/28 08:49:40;;;;;;;9.97;6.63;;;14.50;99.90;;;;;;4833750;29;20207;-90
2021/09/28 08:52:06;;;;;;;5.67;5.10;;;14.40;99.90;;;;;;4846948;29;20191;-90
2021/09/28 08:54:32;;;;;;;6.80;6.20;;;14.50;99.90;;;;;;4831322;29;20467;-90
2021/09/28 08:56:58;;;;;;;7.23;6.37;;;14.70;99.90;;;;;;4833386;29;20440;-89
2021/09/28 08:59:38;;;;;;;8.03;5.67;;;15.10;99.90;;;;;;4841254;29;20454;-90
2021/09/28 09:02:09;;;;;;;6.77;4.60;;;15.90;99.90;;;;;;4847736;29;20186;-90
2021/09/28 09:04:35;;;;;;;7.20;4.57;;;16.40;99.90;;;;;;4846230;29;20438;-90
2021/09/28 09:07:22;;;;;;;6.80;6.30;;;16.90;99.90;;;;;;4832090;29;20447;-90
2021/09/28 09:09:49;;;;;;;8.03;5.90;;;16.80;99.90;;;;;;4848113;29;20479;-89
2021/09/28 09:12:39;;;;;;;6.10;5.60;;;16.70;99.90;;;;;;4846093;29;20464;-90
2021/09/28 09:15:25;;;;;;;8.13;6.30;;;17.10;99.90;;;;;;4828874;29;20484;-90
2021/09/28 09:17:53;;;;;;;6.77;5.83;;;17.60;99.90;;;;;;4834313;29;20442;-90
2021/09/28 09:20:25;;;;;;;5.27;4.80;;;17.80;99.90;;;;;;4833443;29;20529;-90
2021/09/28 09:22:51;;;;;;;6.03;4.57;;;17.80;99.90;;;;;;4832127;29;20435;-90
2021/09/28 09:25:22;;;;;;;5.10;4.60;;;17.80;99.90;;;;;;4853408;29;20458;-90
2021/09/28 09:27:48;;;;;;;5.30;4.27;;;17.80;99.90;;;;;;4832154;29;20444;-90
2021/09/28 09:30:21;;;;;;;3.47;3.17;;;18.10;99.90;;;;;;4848634;29;20474;-89
2021/09/28 09:32:56;;;;;;;5.30;4.30;;;18.60;99.90;;;;;;4832354;29;20432;-90
2021/09/28 09:35:24;;;;;;;4.93;3.40;;;19.20;99.90;;;;;;4832620;29;20482;-90
2021/09/28 09:37:50;;;;;;;4.43;3.50;;;19.30;99.90;;;;;;4848516;29;20462;-90
2021/09/28 09:40:31;;;;;;;3.80;3.50;;;19.50;99.90;;;;;;4850513;29;20511;-90
2021/09/28 09:42:57;;;;;;;4.80;3.40;;;19.50;99.90;;;;;;4835889;29;20986;-90
2021/09/28 09:45:23;;;;;;;4.43;4.03;;;19.50;99.60;;;;;;4830273;29;20538;-90
2021/09/28 09:47:49;;;;;;;5.27;3.93;;;18.80;99.90;;;;;;4846992;29;20186;-90
2021/09/28 09:50:17;;;;;;;4.47;4.07;;;18.10;99.90;;;;;;4844296;29;20454;-89
2021/09/28 09:52:58;;;;;;;6.20;4.17;;;17.90;99.90;;;;;;4846784;29;20202;-90
2021/09/28 09:55:28;;;;;;;5.20;4.70;;;18.20;99.90;;;;;;4832724;29;20510;-90
2021/09/28 09:57:54;;;;;;;5.60;5.00;;;17.90;99.90;;;;;;4846946;29;20451;-89
2021/09/28 10:00:21;;;;;;;8.53;6.57;;;17.60;99.90;;;;;;4845375;29;20504;-89
2021/09/28 10:02:48;;;;;;;4.97;4.60;;;17.40;99.90;;;;;;4843965;29;20492;-90
2021/09/28 10:05:13;;;;;;;5.63;4.90;;;17.10;99.90;;;;;;4840798;29;20504;-89
2021/09/28 10:07:42;;;;;;;4.80;4.10;;;17.40;99.90;;;;;;4827840;29;20460;-89
2021/09/28 10:10:14;;;;;;;11.67;5.03;;;17.50;99.90;;;;;;4842284;29;20186;-89
2021/09/28 10:12:39;;;;;;;5.33;4.27;;;18.00;99.90;;;;;;4842982;29;20455;-89
2021/09/28 10:15:10;;;;;;;4.70;4.23;;;18.40;98.60;;;;;;4851194;29;20531;-90
2021/09/28 10:17:44;;;;;;;4.57;3.90;;;18.80;99.40;;;;;;4848406;29;20185;-89
2021/09/28 10:20:29;;;;;;;4.67;4.27;;;19.00;98.80;;;;;;4852688;29;20441;-90
2021/09/28 10:22:56;;;;;;;6.87;4.03;;;19.30;99.90;;;;;;4848467;29;20480;-90
2021/09/28 10:25:30;;;;;;;7.27;4.00;;;19.60;98.80;;;;;;4835510;29;21015;-90
2021/09/28 10:28:03;;;;;;;5.27;4.00;;;19.40;97.80;;;;;;4834061;29;20474;-90
2021/09/28 10:30:32;;;;;;;4.40;3.70;;;20.00;96.00;;;;;;4851281;29;20438;-90
2021/09/28 10:33:24;;;;;;;4.30;3.77;;;20.70;96.50;;;;;;4834286;29;20463;-90
2021/09/28 10:36:00;;;;;;;5.20;3.70;;;20.00;97.20;;;;;;4841864;29;20486;-90
2021/09/28 10:38:59;;;;;;;4.10;3.70;;;19.50;97.10;;;;;;4834838;29;20542;-90
2021/09/28 10:41:41;;;;;;;3.43;3.23;;;19.60;96.60;;;;;;4819679;29;20463;-90
2021/09/28 10:44:26;;;;;;;3.83;3.53;;;19.50;96.70;;;;;;4833489;29;23794;-90
2021/09/28 10:46:52;;;;;;;4.73;3.27;;;19.20;96.90;;;;;;4834792;29;20443;-91
2021/09/28 10:49:29;;;;;;;4.40;3.20;;;19.10;96.60;;;;;;4846615;29;20463;-91
2021/09/28 10:52:20;;;;;;;4.17;3.77;;;19.30;97.80;;;;;;4846501;29;20808;-91
2021/09/28 10:55:04;;;;;;;4.77;3.60;;;19.30;98.50;;;;;;4853518;29;20479;-90
2021/09/28 10:57:58;;;;;;;3.83;3.53;;;19.70;96.30;;;;;;4850204;29;20443;-89
2021/09/28 11:00:44;;;;;;;4.10;3.67;;;19.80;96.70;;;;;;4830122;29;20479;-91
2021/09/28 11:03:14;;;;;;;3.60;3.30;;;19.80;96.70;;;;;;4839644;29;20833;-89
2021/09/28 11:05:41;;;;;;;3.50;3.20;;;20.20;95.80;;;;;;4850036;29;20472;-91
2021/09/28 11:08:09;;;;;;;3.50;3.00;;;20.60;96.10;;;;;;4841101;29;21942;-90
2021/09/28 11:10:36;;;;;;;4.40;3.67;;;20.50;95.70;;;;;;4836710;29;20506;-90
2021/09/28 11:13:09;;;;;;;4.73;3.87;;;20.30;94.50;;;;;;4842636;29;20439;-90
2021/09/28 11:15:35;;;;;;;3.23;2.93;;;20.20;95.80;;;;;;4845882;29;20487;-90
2021/09/28 11:18:14;;;;;;;3.90;3.07;;;20.70;94.80;;;;;;4844698;29;20997;-90
2021/09/28 11:20:41;;;;;;;7.77;4.30;;;20.70;95.40;;;;;;4849610;29;20202;-90
2021/09/28 11:23:10;;;;;;;3.30;3.00;;;20.80;95.20;;;;;;4845228;29;20551;-90
2021/09/28 11:25:46;;;;;;;3.83;3.37;;;21.50;95.80;;;;;;4831930;29;20974;-91
2021/09/28 11:28:14;;;;;;;3.40;3.10;;;21.60;94.20;;;;;;4828433;29;20930;-90
2021/09/28 11:30:49;;;;;;;4.37;3.10;;;21.80;93.60;;;;;;4847089;29;20459;-90
2021/09/28 11:33:15;;;;;;;5.07;3.37;;;22.30;92.90;;;;;;4830118;29;20909;-90
2021/09/28 11:36:05;;;;;;;4.80;3.80;;;22.10;93.20;;;;;;4852009;29;20550;-89
2021/09/28 11:38:55;;;;;;;4.20;3.57;;;21.40;92.60;;;;;;4834159;29;20707;-90
2021/09/28 11:41:22;;;;;;;3.50;3.20;;;20.70;93.30;;;;;;4849522;29;20462;-90
2021/09/28 11:43:53;;;;;;;4.40;3.07;;;20.20;94.60;;;;;;4845191;29;21010;-91
2021/09/28 11:46:20;;;;;;;3.53;3.20;;;19.90;93.30;;;;;;4849630;29;20450;-90
2021/09/28 11:48:56;;;;;;;3.97;2.93;;;19.30;94.20;;;;;;4849336;29;20972;-90
2021/09/28 11:51:24;;;;;;;4.03;2.67;;;19.60;94.10;;;;;;4835445;29;20534;-90
2021/09/28 11:53:53;;;;;;;4.63;3.23;;;20.30;92.70;;;;;;4849033;29;20459;-89
2021/09/28 11:56:19;;;;;;;3.50;3.20;;;20.20;92.90;;;;;;4849139;29;20486;-90
2021/09/28 11:58:47;;;;;;;4.80;3.10;;;21.30;92.70;;;;;;4834373;29;20524;-90
2021/09/28 12:01:14;;;;;;;3.30;2.50;;;21.30;92.00;;;;;;4849603;29;20938;-90
2021/09/28 12:07:05;;;;;;;4.47;2.60;;;21.70;92.00;;;;;;4846951;29;20470;-91
2021/09/28 12:09:33;;;;;;;3.13;2.83;;;22.20;91.60;;;;;;4834399;29;20876;-90
2021/09/28 12:12:06;;;;;;;2.87;2.50;;;22.50;90.90;;;;;;4849850;29;20543;-91
2021/09/28 12:14:35;;;;;;;3.13;2.83;;;22.10;91.20;;;;;;4846266;29;20480;-90
2021/09/28 12:17:11;;;;;;;2.73;2.53;;;22.50;90.40;;;;;;4848573;29;20487;-91
2021/09/28 12:19:37;;;;;;;3.00;2.60;;;22.50;90.80;;;;;;4849344;29;20468;-91
2021/09/28 12:22:03;;;;;;;3.13;2.70;;;22.70;90.90;;;;;;4848524;29;20485;-91
2021/09/28 12:24:49;;;;;;;3.20;2.90;;;22.80;88.60;;;;;;4833009;29;21062;-90
2021/09/28 12:27:15;;;;;;;3.23;2.97;;;21.60;90.40;;;;;;4832211;29;20856;-90
2021/09/28 12:29:44;;;;;;;4.27;3.40;;;21.50;90.80;;;;;;4851215;29;20443;-90
2021/09/28 12:32:29;;;;;;;4.17;3.23;;;21.10;90.30;;;;;;4831486;29;20439;-91
2021/09/28 12:35:00;;;;;;;3.00;2.70;;;21.90;91.90;;;;;;4847246;29;20482;-90
2021/09/28 12:37:27;;;;;;;3.00;2.77;;;22.20;91.70;;;;;;4850684;29;20727;-91
2021/09/28 12:40:05;;;;;;;3.00;2.80;;;21.90;91.00;;;;;;4849084;29;20462;-90
2021/09/28 12:42:31;;;;;;;5.17;3.63;;;22.20;89.80;;;;;;4846920;29;22737;-91
2021/09/28 12:45:04;;;;;;;4.10;3.60;;;22.30;91.00;;;;;;4831278;29;20452;-90
2021/09/28 12:47:39;;;;;;;3.50;3.00;;;22.00;88.00;;;;;;4847856;29;21012;-90
2021/09/28 12:50:27;;;;;;;3.67;3.20;;;20.80;90.70;;;;;;4849450;29;20988;-90
2021/09/28 12:52:57;;;;;;;3.63;3.33;;;21.20;91.10;;;;;;4838122;29;20838;-90
2021/09/28 12:55:23;;;;;;;3.83;3.20;;;21.80;90.70;;;;;;4830480;29;20479;-90